Time;durP1;ratioP1;P1;durP2;ratioP2;P2;SDS_P1;SDS_P2;PMS_P1;PMS_P2;Temp;Humidity;BMP_temperature;BMP_pressure;BME280_temperature;BME280_humidity;BME280_pressure;Samples;Min_cycle;Max_cycle;Signal;HPM_P1;HPM_P2
2022/09/02 00:00:48;;;;;;;4.50;1.80;;;;;;;7.42;79.36;101205.20;84244;1339;26566;-70
2022/09/02 00:02:57;;;;;;;3.70;1.80;;;;;;;7.40;79.31;101209.74;84220;1339;25459;-70
2022/09/02 00:05:07;;;;;;;5.10;2.50;;;;;;;7.38;79.39;101201.26;84192;1339;22606;-69
2022/09/02 00:07:21;;;;;;;3.00;1.90;;;;;;;7.36;79.44;101199.90;84223;1337;22892;-68
2022/09/02 00:09:30;;;;;;;3.00;1.80;;;;;;;7.33;79.44;101200.28;84185;1339;25304;-71
2022/09/02 00:11:48;;;;;;;2.20;1.90;;;;;;;7.29;79.37;101197.20;84199;1339;22636;-72
2022/09/02 00:13:57;;;;;;;2.30;1.60;;;;;;;7.26;79.45;101194.80;84219;1339;22677;-71
2022/09/02 00:16:06;;;;;;;2.50;1.60;;;;;;;7.23;79.33;101192.75;84062;1341;22616;-71
2022/09/02 00:18:15;;;;;;;3.20;2.60;;;;;;;7.21;79.49;101191.90;84193;1339;22751;-69
2022/09/02 00:20:24;;;;;;;4.00;1.60;;;;;;;7.20;79.51;101193.66;84204;1339;25447;-70
2022/09/02 00:22:35;;;;;;;3.20;2.00;;;;;;;7.18;79.71;101193.67;84209;1339;23939;-70
2022/09/02 00:24:56;;;;;;;2.60;1.90;;;;;;;7.16;80.01;101192.31;84207;1339;22607;-70
2022/09/02 00:27:08;;;;;;;5.40;1.70;;;;;;;7.14;79.89;101193.54;84223;1339;22611;-69
2022/09/02 00:29:17;;;;;;;5.60;1.60;;;;;;;7.13;79.71;101195.30;84180;1339;25338;-69
2022/09/02 00:31:27;;;;;;;4.00;2.40;;;;;;;7.10;79.85;101194.12;84204;1339;22951;-70
2022/09/02 00:33:36;;;;;;;5.10;1.70;;;;;;;7.08;79.75;101196.38;84233;1339;24083;-70
2022/09/02 00:35:45;;;;;;;5.60;2.00;;;;;;;7.06;80.25;101200.22;84053;1342;25643;-70
2022/09/02 00:38:06;;;;;;;2.20;1.50;;;;;;;7.04;80.04;101201.98;84233;1339;24629;-69
2022/09/02 00:40:16;;;;;;;3.10;1.90;;;;;;;7.03;80.17;101201.13;84247;1338;22781;-70
2022/09/02 00:42:26;;;;;;;4.00;1.80;;;;;;;7.01;80.16;101201.84;84242;1339;22601;-69
2022/09/02 00:44:35;;;;;;;5.20;1.90;;;;;;;6.99;80.26;101200.30;84218;1339;22597;-70
2022/09/02 00:46:43;;;;;;;3.30;1.80;;;;;;;6.96;80.25;101201.55;84175;1339;22694;-68
2022/09/02 00:49:08;;;;;;;3.20;2.00;;;;;;;6.93;80.14;101204.17;84228;1339;22612;-70
2022/09/02 00:51:17;;;;;;;2.70;1.90;;;;;;;6.90;80.60;101204.71;84227;1338;22703;-71
2022/09/02 00:53:25;;;;;;;5.20;2.60;;;;;;;6.89;80.42;101201.79;84180;1339;22668;-69
2022/09/02 00:55:41;;;;;;;2.90;1.60;;;;;;;6.88;80.67;101202.83;84199;1339;23019;-69
2022/09/02 00:57:53;;;;;;;7.30;2.40;;;;;;;6.86;80.60;101201.29;84060;1337;24196;-70
2022/09/02 01:00:23;;;;;;;3.60;1.60;;;;;;;6.85;80.83;101203.04;84205;1339;22620;-70
2022/09/02 01:02:32;;;;;;;6.30;1.90;;;;;;;6.84;80.92;101208.94;84217;1335;22629;-70
2022/09/02 01:04:45;;;;;;;2.50;1.50;;;;;;;6.84;80.80;101206.52;84194;1336;22749;-69
2022/09/02 01:06:57;;;;;;;4.80;1.80;;;;;;;6.83;80.94;101206.00;84182;1338;22616;-70
2022/09/02 01:09:11;;;;;;;3.00;1.70;;;;;;;6.82;80.98;101206.54;83950;1341;22593;-70
2022/09/02 01:11:31;;;;;;;3.60;2.00;;;;;;;6.80;80.86;101206.38;84185;1339;22725;-69
2022/09/02 01:13:43;;;;;;;8.20;1.80;;;;;;;6.79;81.08;101204.98;84256;1339;24276;-70
2022/09/02 01:15:54;;;;;;;4.40;2.10;;;;;;;6.80;81.19;101203.94;84225;1337;22597;-70
2022/09/02 01:18:07;;;;;;;4.70;1.70;;;;;;;6.80;80.98;101198.92;84199;1339;22796;-70
2022/09/02 01:20:23;;;;;;;3.40;2.00;;;;;;;6.80;81.27;101206.73;84206;1341;22611;-69
2022/09/02 01:22:38;;;;;;;2.30;1.80;;;;;;;6.77;81.43;101205.36;84260;1340;22687;-69
2022/09/02 01:24:49;;;;;;;3.90;1.90;;;;;;;6.76;81.61;101207.46;84216;1336;22600;-70
2022/09/02 01:27:02;;;;;;;2.00;1.60;;;;;;;6.75;81.67;101206.42;84213;1339;25295;-68
2022/09/02 01:29:11;;;;;;;6.00;2.50;;;;;;;6.75;81.54;101208.67;84220;1333;22657;-71
2022/09/02 01:31:20;;;;;;;3.80;1.90;;;;;;;6.74;81.67;101211.98;84195;1339;22590;-71
2022/09/02 01:33:34;;;;;;;3.40;1.90;;;;;;;6.76;81.85;101210.06;84195;1339;22888;-69
2022/09/02 01:35:43;;;;;;;5.00;2.10;;;;;;;6.76;81.96;101207.98;84182;1339;22619;-70
2022/09/02 01:37:53;;;;;;;5.50;1.50;;;;;;;6.74;82.00;101210.59;84193;1339;25497;-70
2022/09/02 01:40:02;;;;;;;4.30;1.40;;;;;;;6.71;81.78;101211.31;84188;1339;22600;-71
2022/09/02 01:42:11;;;;;;;7.70;1.90;;;;;;;6.67;81.95;101205.61;84063;1341;24258;-71
2022/09/02 01:44:20;;;;;;;2.40;1.70;;;;;;;6.63;81.68;101205.14;84039;1336;24253;-70
2022/09/02 01:46:29;;;;;;;4.50;1.90;;;;;;;6.59;81.57;101205.00;84193;1339;22634;-69
2022/09/02 01:48:44;;;;;;;4.90;2.30;;;;;;;6.57;81.63;101205.38;84194;1339;25377;-71
2022/09/02 01:50:56;;;;;;;3.40;2.10;;;;;;;6.56;81.66;101206.23;84221;1339;22622;-71
2022/09/02 01:53:06;;;;;;;6.20;1.70;;;;;;;6.54;81.70;101206.08;84211;1339;22717;-70
2022/09/02 01:55:18;;;;;;;4.40;1.80;;;;;;;6.52;81.63;101208.34;84198;1339;25309;-70
2022/09/02 01:57:27;;;;;;;7.00;2.20;;;;;;;6.47;81.54;101210.46;84219;1339;25416;-70
2022/09/02 01:59:36;;;;;;;5.00;1.90;;;;;;;6.41;81.39;101210.85;84206;1339;22868;-72
2022/09/02 02:01:54;;;;;;;4.80;1.50;;;;;;;6.37;81.66;101209.85;84182;1339;22704;-71
2022/09/02 02:04:03;;;;;;;3.40;1.60;;;;;;;6.33;81.58;101208.31;84222;1339;23877;-69
2022/09/02 02:06:15;;;;;;;3.20;1.90;;;;;;;6.29;81.40;101204.71;84206;1339;22659;-69
2022/09/02 02:08:25;;;;;;;4.40;2.20;;;;;;;6.26;81.65;101205.42;84194;1339;22616;-71
2022/09/02 02:10:48;;;;;;;2.70;1.60;;;;;;;6.23;81.69;101205.09;83918;1341;22689;-71
2022/09/02 02:12:58;;;;;;;3.80;1.90;;;;;;;6.19;81.88;101209.63;84087;1340;22591;-67
2022/09/02 02:15:11;;;;;;;3.30;1.90;;;;;;;6.18;82.13;101211.52;84203;1339;22590;-69
2022/09/02 02:17:22;;;;;;;4.90;1.60;;;;;;;6.15;82.07;101210.52;84178;1339;22620;-70
2022/09/02 02:19:31;;;;;;;4.10;2.20;;;;;;;6.13;81.99;101211.91;84196;1342;22597;-69
2022/09/02 02:21:40;;;;;;;3.30;1.50;;;;;;;6.12;82.08;101212.10;84162;1338;22610;-71
2022/09/02 02:24:08;;;;;;;3.20;1.70;;;;;;;6.12;82.04;101212.45;84223;1339;23471;-70
2022/09/02 02:26:16;;;;;;;5.80;1.80;;;;;;;6.13;82.32;101212.79;84222;1339;22640;-70
2022/09/02 02:28:25;;;;;;;2.80;1.60;;;;;;;6.12;82.14;101211.94;84074;1340;22698;-69
2022/09/02 02:30:34;;;;;;;4.40;1.80;;;;;;;6.10;82.43;101210.38;84205;1339;22659;-69
2022/09/02 02:32:44;;;;;;;3.10;1.60;;;;;;;6.07;82.28;101209.02;84179;1336;22962;-69
2022/09/02 02:35:02;;;;;;;5.00;1.80;;;;;;;6.03;82.35;101211.29;84083;1341;22596;-69
2022/09/02 02:37:12;;;;;;;3.10;2.30;;;;;;;6.01;82.52;101212.16;84196;1339;25511;-69
2022/09/02 02:39:25;;;;;;;3.30;1.30;;;;;;;5.99;82.41;101214.26;84064;1340;22620;-70
2022/09/02 02:41:41;;;;;;;7.40;1.70;;;;;;;5.97;82.68;101214.10;84208;1339;24055;-70
2022/09/02 02:43:50;;;;;;;3.50;1.90;;;;;;;5.97;82.71;101215.84;84225;1339;22867;-70
2022/09/02 02:46:10;;;;;;;6.60;2.10;;;;;;;5.95;82.81;101212.71;84043;1342;22621;-71
2022/09/02 02:48:19;;;;;;;3.60;1.80;;;;;;;5.94;82.44;101211.68;84102;1340;22648;-72
2022/09/02 02:50:28;;;;;;;3.60;1.80;;;;;;;5.93;82.93;101209.96;84207;1339;25445;-71
2022/09/02 02:52:37;;;;;;;5.20;1.90;;;;;;;5.93;82.89;101212.38;84183;1336;22617;-70
2022/09/02 02:54:46;;;;;;;2.30;1.90;;;;;;;5.92;82.96;101208.75;84203;1337;22674;-71
2022/09/02 02:56:55;;;;;;;3.70;1.70;;;;;;;5.89;82.80;101206.83;84141;1339;26526;-69
2022/09/02 02:59:04;;;;;;;4.10;2.10;;;;;;;5.86;82.59;101206.16;84142;1339;24264;-68
2022/09/02 03:01:25;;;;;;;2.40;1.90;;;;;;;5.83;82.64;101204.60;84184;1341;22649;-69
2022/09/02 03:03:37;;;;;;;3.20;1.80;;;;;;;5.80;82.64;101206.70;84153;1339;22599;-69
2022/09/02 03:05:48;;;;;;;7.10;3.10;;;;;;;5.76;82.65;101205.52;84190;1339;22594;-70
2022/09/02 03:07:58;;;;;;;3.40;2.00;;;;;;;5.73;82.47;101208.46;84183;1339;25484;-71
2022/09/02 03:10:08;;;;;;;5.70;2.30;;;;;;;5.70;82.39;101206.58;84206;1336;22613;-71
2022/09/02 03:12:17;;;;;;;3.00;2.00;;;;;;;5.68;82.44;101208.49;84197;1339;22619;-73
2022/09/02 03:14:26;;;;;;;4.90;1.80;;;;;;;5.65;82.64;101208.33;84183;1339;22594;-70
2022/09/02 03:16:43;;;;;;;4.00;2.30;;;;;;;5.65;82.65;101209.89;84208;1339;22609;-69
2022/09/02 03:18:54;;;;;;;5.50;2.00;;;;;;;5.64;82.77;101204.35;84185;1339;22674;-71
2022/09/02 03:21:06;;;;;;;3.40;2.30;;;;;;;5.63;82.90;101206.27;84210;1339;22601;-71
2022/09/02 03:23:15;;;;;;;10.50;2.90;;;;;;;5.61;82.90;101204.71;84225;1339;23977;-71
2022/09/02 03:25:24;;;;;;;6.80;2.90;;;;;;;5.61;83.25;101207.30;84187;1339;25273;-70
2022/09/02 03:27:34;;;;;;;4.70;2.30;;;;;;;5.62;83.19;101211.81;84206;1339;24991;-70
2022/09/02 03:29:44;;;;;;;8.70;2.30;;;;;;;5.63;83.08;101214.05;84242;1339;22756;-70
2022/09/02 03:31:57;;;;;;;10.70;2.40;;;;;;;5.63;83.09;101215.79;84204;1339;22628;-70
2022/09/02 03:34:08;;;;;;;4.70;1.70;;;;;;;5.60;83.17;101215.27;84199;1342;22643;-70
2022/09/02 03:36:24;;;;;;;4.40;2.40;;;;;;;5.57;83.16;101217.88;84223;1339;22611;-70
2022/09/02 03:38:33;;;;;;;5.10;2.50;;;;;;;5.53;82.85;101218.25;83933;1339;415428;-71
2022/09/02 03:40:43;;;;;;;2.40;1.90;;;;;;;5.50;83.16;101220.85;84182;1339;24245;-71
2022/09/02 03:43:09;;;;;;;3.00;2.40;;;;;;;5.47;83.04;101226.23;84182;1336;22611;-69
2022/09/02 03:45:18;;;;;;;2.70;1.80;;;;;;;5.45;83.05;101229.17;84194;1339;22614;-70
2022/09/02 03:47:28;;;;;;;5.50;2.50;;;;;;;5.45;83.19;101229.34;84187;1339;22616;-70
2022/09/02 03:49:37;;;;;;;4.40;2.20;;;;;;;5.49;83.35;101229.70;84169;1339;22721;-71
2022/09/02 03:51:49;;;;;;;5.70;2.70;;;;;;;5.49;83.17;101230.38;84177;1340;22594;-71
2022/09/02 03:53:57;;;;;;;5.10;1.80;;;;;;;5.48;83.31;101234.01;84183;1339;22617;-70
2022/09/02 03:56:14;;;;;;;4.20;2.10;;;;;;;5.47;83.24;101237.48;84201;1339;22633;-70
2022/09/02 03:58:31;;;;;;;2.50;1.70;;;;;;;5.48;83.44;101241.29;84197;1339;25535;-70
2022/09/02 04:00:40;;;;;;;4.90;2.80;;;;;;;5.48;83.45;101239.73;84181;1339;23981;-69
2022/09/02 04:02:54;;;;;;;6.70;1.90;;;;;;;5.46;83.25;101241.98;84194;1336;23920;-69
2022/09/02 04:05:12;;;;;;;4.80;1.80;;;;;;;5.45;83.09;101245.27;84199;1339;22638;-71
2022/09/02 04:07:23;;;;;;;4.20;1.70;;;;;;;5.44;83.34;101247.70;83901;1339;22783;-71
2022/09/02 04:09:32;;;;;;;4.30;2.50;;;;;;;5.44;83.38;101253.92;84101;1341;22865;-69
2022/09/02 04:11:46;;;;;;;4.80;2.10;;;;;;;5.45;83.22;101253.57;84189;1339;22567;-69
2022/09/02 04:13:58;;;;;;;4.20;1.70;;;;;;;5.48;83.36;101250.80;84216;1339;23012;-69
2022/09/02 04:16:18;;;;;;;2.50;1.80;;;;;;;5.50;83.56;101251.99;84203;1339;22637;-70
2022/09/02 04:18:27;;;;;;;2.50;1.50;;;;;;;5.53;83.70;101251.31;84254;1339;22595;-68
2022/09/02 04:20:41;;;;;;;8.10;2.10;;;;;;;5.56;83.79;101251.11;84195;1339;23984;-69
2022/09/02 04:22:50;;;;;;;3.20;2.00;;;;;;;5.60;83.93;101252.48;84211;1339;22769;-68
2022/09/02 04:25:11;;;;;;;4.80;2.20;;;;;;;5.62;83.89;101253.70;84206;1339;25281;-69
2022/09/02 04:27:26;;;;;;;3.80;2.00;;;;;;;5.68;84.24;101255.23;84216;1339;22699;-68
2022/09/02 04:29:39;;;;;;;3.30;2.00;;;;;;;5.81;84.46;101257.26;84225;1339;22609;-69
2022/09/02 04:31:48;;;;;;;3.70;2.80;;;;;;;5.86;84.40;101254.64;84202;1339;22858;-70
2022/09/02 04:33:57;;;;;;;5.20;2.70;;;;;;;5.90;84.47;101256.00;84248;1339;23150;-69
2022/09/02 04:36:22;;;;;;;3.70;2.10;;;;;;;5.95;84.62;101252.38;84202;1339;22606;-72
2022/09/02 04:38:31;;;;;;;4.90;2.40;;;;;;;6.02;84.47;101258.92;83882;1342;22592;-73
2022/09/02 04:40:44;;;;;;;4.50;3.20;;;;;;;6.12;84.78;101253.52;84194;1339;22873;-72
2022/09/02 04:42:53;;;;;;;11.20;2.60;;;;;;;6.32;85.28;101251.99;84216;1339;24303;-70
2022/09/02 04:45:02;;;;;;;7.90;2.60;;;;;;;6.52;85.91;101251.34;84216;1339;22617;-70
2022/09/02 04:47:10;;;;;;;14.40;2.90;;;;;;;6.67;85.89;101251.75;84212;1337;23083;-69
2022/09/02 04:49:23;;;;;;;21.30;3.10;;;;;;;6.79;85.56;101249.40;84214;1340;22576;-70
2022/09/02 04:51:32;;;;;;;12.60;2.70;;;;;;;6.92;85.16;101255.00;84191;1336;22676;-69
2022/09/02 04:53:41;;;;;;;19.20;2.70;;;;;;;7.00;85.11;101248.16;84224;1336;22620;-69
2022/09/02 04:55:50;;;;;;;20.20;3.60;;;;;;;7.06;84.75;101247.94;84197;1337;22593;-69
2022/09/02 04:58:01;;;;;;;17.80;3.40;;;;;;;7.13;84.79;101248.73;84202;1336;22606;-71
2022/09/02 05:00:13;;;;;;;31.30;3.90;;;;;;;7.20;85.05;101250.23;84184;1339;22603;-71
2022/09/02 05:02:22;;;;;;;27.30;4.40;;;;;;;7.30;85.08;101247.00;84185;1339;24287;-70
2022/09/02 05:04:32;;;;;;;32.60;5.30;;;;;;;7.38;85.21;101247.63;84205;1339;24332;-69
2022/09/02 05:06:41;;;;;;;18.70;3.70;;;;;;;7.48;85.58;101246.63;84220;1339;22823;-69
2022/09/02 05:08:53;;;;;;;15.40;3.90;;;;;;;7.58;85.87;101248.08;84218;1339;24147;-70
2022/09/02 05:11:06;;;;;;;23.20;3.80;;;;;;;7.68;85.67;101250.56;84185;1339;22611;-70
2022/09/02 05:13:16;;;;;;;26.30;3.40;;;;;;;7.78;85.53;101257.05;84043;1340;22576;-71
2022/09/02 05:15:25;;;;;;;16.30;4.20;;;;;;;7.88;85.72;101261.61;84230;1339;22870;-72
2022/09/02 05:17:36;;;;;;;17.20;2.90;;;;;;;8.00;85.86;101263.39;84186;1339;24139;-71
2022/09/02 05:19:46;;;;;;;12.60;3.00;;;;;;;8.12;85.94;101260.95;84177;1339;22597;-70
2022/09/02 05:22:03;;;;;;;21.90;4.80;;;;;;;8.24;86.04;101256.09;84203;1340;22604;-70
2022/09/02 05:24:12;;;;;;;12.70;2.80;;;;;;;8.41;86.25;101255.02;84180;1339;22600;-72
2022/09/02 05:26:21;;;;;;;8.30;2.50;;;;;;;8.56;86.10;101254.77;84180;1339;22723;-71
2022/09/02 05:28:32;;;;;;;8.00;2.90;;;;;;;8.79;87.06;101254.58;84194;1342;22605;-71
2022/09/02 05:30:41;;;;;;;8.60;2.80;;;;;;;9.55;90.92;101247.61;84217;1339;22598;-70
2022/09/02 05:32:50;;;;;;;11.10;2.50;;;;;;;10.98;92.99;101249.61;84188;1339;22613;-70
2022/09/02 05:34:59;;;;;;;12.50;2.00;;;;;;;12.74;90.04;101246.25;84195;1339;22809;-72
2022/09/02 05:37:07;;;;;;;6.60;1.60;;;;;;;14.35;83.52;101243.95;84199;1337;22609;-72
2022/09/02 05:39:16;;;;;;;4.90;2.30;;;;;;;15.70;76.50;101243.14;84184;1339;24417;-71
2022/09/02 05:41:25;;;;;;;4.50;1.90;;;;;;;16.92;70.75;101242.61;84188;1339;22607;-72
2022/09/02 05:43:47;;;;;;;3.90;1.90;;;;;;;18.08;66.11;101235.30;84172;1339;23309;-71
2022/09/02 05:45:59;;;;;;;6.30;1.90;;;;;;;19.09;61.17;101235.50;84200;1339;22714;-72
2022/09/02 05:50:32;;;;;;;6.10;1.90;;;;;;;20.93;55.08;101239.22;84172;1339;22609;-72
2022/09/02 05:52:45;;;;;;;4.00;2.00;;;;;;;21.74;52.90;101236.48;84225;1342;23689;-71
2022/09/02 05:54:54;;;;;;;4.30;2.60;;;;;;;22.17;49.95;101238.70;84221;1336;22944;-72
2022/09/02 05:57:08;;;;;;;6.90;2.10;;;;;;;22.18;48.58;101237.23;84204;1339;22713;-70
2022/09/02 05:59:17;;;;;;;9.90;3.70;;;;;;;22.22;47.79;101238.77;84239;1339;25188;-70
2022/09/02 06:01:26;;;;;;;9.40;2.50;;;;;;;22.65;47.04;101234.09;84211;1339;26684;-72
2022/09/02 06:03:35;;;;;;;11.70;2.90;;;;;;;23.32;45.36;101235.06;84199;1339;22634;-71
2022/09/02 06:05:47;;;;;;;5.10;2.30;;;;;;;24.05;43.98;101240.14;84204;1339;22720;-71
2022/09/02 06:07:55;;;;;;;6.10;2.70;;;;;;;24.64;42.25;101232.49;84184;1338;22657;-71
2022/09/02 06:10:06;;;;;;;6.60;1.60;;;;;;;25.19;41.18;101228.39;84195;1339;22666;-70
2022/09/02 06:12:17;;;;;;;3.40;1.40;;;;;;;25.78;39.69;101233.45;84176;1339;22750;-70
2022/09/02 06:14:27;;;;;;;3.30;1.40;;;;;;;26.36;37.87;101231.95;84217;1339;22600;-70
2022/09/02 06:16:35;;;;;;;2.40;1.10;;;;;;;26.77;37.09;101229.98;84214;1339;22677;-70
2022/09/02 06:18:44;;;;;;;5.40;1.80;;;;;;;26.99;35.22;101229.05;84200;1341;22654;-72
2022/09/02 06:20:53;;;;;;;5.40;1.40;;;;;;;26.98;34.70;101227.88;84180;1339;22850;-72
2022/09/02 06:23:03;;;;;;;3.20;1.00;;;;;;;27.15;34.45;101225.46;84190;1339;22627;-71
2022/09/02 06:25:12;;;;;;;3.20;1.50;;;;;;;27.24;34.50;101225.94;84214;1339;22611;-70
2022/09/02 06:27:21;;;;;;;3.00;1.10;;;;;;;27.03;33.79;101228.65;84195;1336;22600;-71
2022/09/02 06:29:30;;;;;;;5.10;1.50;;;;;;;26.45;34.28;101233.64;84218;1339;22697;-70
2022/09/02 06:31:40;;;;;;;5.10;2.10;;;;;;;25.67;34.76;101234.36;84205;1339;23063;-69
2022/09/02 06:33:51;;;;;;;7.80;4.00;;;;;;;24.91;35.32;101239.46;84234;1339;22608;-72
2022/09/02 06:36:00;;;;;;;11.20;4.80;;;;;;;24.15;36.13;101243.77;84210;1335;22859;-71
2022/09/02 06:38:09;;;;;;;21.70;10.00;;;;;;;23.59;37.20;101244.35;84222;1341;22558;-69
2022/09/02 06:40:18;;;;;;;22.00;8.80;;;;;;;23.09;37.90;101242.19;84195;1339;24331;-70
2022/09/02 06:42:27;;;;;;;41.90;8.40;;;;;;;22.65;38.20;101245.48;84230;1339;22621;-70
2022/09/02 06:44:36;;;;;;;12.60;4.60;;;;;;;22.16;38.88;101249.09;84207;1339;25504;-71
2022/09/02 06:46:47;;;;;;;14.10;4.10;;;;;;;21.66;39.74;101248.95;84189;1339;22788;-70
2022/09/02 06:48:56;;;;;;;26.40;7.30;;;;;;;21.23;40.46;101249.65;84234;1339;22607;-70
2022/09/02 06:51:05;;;;;;;18.80;5.30;;;;;;;20.71;40.80;101250.81;84199;1342;22556;-68
2022/09/02 06:53:13;;;;;;;28.90;7.40;;;;;;;20.24;42.20;101256.15;84211;1339;25334;-70
2022/09/02 06:55:22;;;;;;;14.30;2.90;;;;;;;19.88;42.67;101258.13;84197;1341;22612;-69
2022/09/02 06:57:32;;;;;;;17.50;3.80;;;;;;;19.52;43.49;101259.80;84168;1339;22585;-70
2022/09/02 06:59:40;;;;;;;36.80;6.00;;;;;;;19.25;43.93;101261.06;84206;1339;24236;-70
2022/09/02 07:01:50;;;;;;;63.30;6.50;;;;;;;19.06;44.42;101262.56;84212;1339;22809;-68
2022/09/02 07:06:26;;;;;;;33.90;7.50;;;;;;;18.95;45.01;101263.59;84187;1342;22624;-73
2022/09/02 07:08:33;;;;;;;;;;;;;;;18.98;45.15;101264.08;84239;1339;23552;-72
2022/09/02 07:10:44;;;;;;;40.90;7.80;;;;;;;19.25;45.48;101259.65;84209;1339;25317;-72
2022/09/02 07:12:53;;;;;;;15.40;4.30;;;;;;;19.65;44.57;101262.54;84213;1339;25386;-71
2022/09/02 07:15:02;;;;;;;23.70;4.00;;;;;;;19.87;44.63;101266.32;84197;1339;22720;-70
2022/09/02 07:17:16;;;;;;;8.90;4.30;;;;;;;20.09;44.54;101262.24;84217;1340;22669;-73
2022/09/02 07:19:25;;;;;;;17.20;4.80;;;;;;;20.32;43.72;101262.40;84215;1339;25584;-75
2022/09/02 07:21:35;;;;;;;11.60;3.90;;;;;;;20.56;43.38;101259.44;84192;1339;22613;-74
2022/09/02 07:23:46;;;;;;;7.90;1.40;;;;;;;20.85;42.45;101257.34;84197;1339;23983;-74
2022/09/02 07:25:56;;;;;;;7.30;1.70;;;;;;;21.03;41.37;101259.16;84194;1339;22620;-74
2022/09/02 07:28:05;;;;;;;14.00;5.00;;;;;;;21.06;41.38;101257.64;84241;1339;24309;-73
2022/09/02 07:30:16;;;;;;;8.10;4.60;;;;;;;21.11;41.22;101258.77;84197;1339;22668;-74
2022/09/02 07:32:29;;;;;;;16.40;5.90;;;;;;;21.26;41.25;101261.64;84193;1335;22921;-73
2022/09/02 07:34:38;;;;;;;19.70;8.00;;;;;;;21.29;41.17;101260.40;84194;1339;22865;-75
2022/09/02 07:36:48;;;;;;;30.30;11.50;;;;;;;21.30;41.47;101260.68;84170;1339;22855;-77
2022/09/02 07:38:58;;;;;;;18.60;7.80;;;;;;;21.35;41.00;101255.91;84170;1339;22703;-76
2022/09/02 07:41:07;;;;;;;;;;;;;;;21.39;41.28;101254.55;84201;1339;24064;-72
2022/09/02 07:43:17;;;;;;;7.30;2.50;;;;;;;21.50;41.95;101256.27;84190;1339;22751;-75
2022/09/02 07:45:26;;;;;;;5.50;1.40;;;;;;;21.78;41.35;101256.61;84191;1339;25372;-76
2022/09/02 07:47:39;;;;;;;16.90;4.90;;;;;;;22.25;40.44;101255.59;84191;1339;22610;-74
2022/09/02 07:49:48;;;;;;;13.90;2.70;;;;;;;22.65;39.05;101257.77;84186;1339;22618;-76
2022/09/02 07:51:58;;;;;;;3.70;1.80;;;;;;;23.30;39.05;101256.06;84199;1339;22563;-75
2022/09/02 07:54:13;;;;;;;7.00;2.80;;;;;;;24.27;37.28;101259.02;84214;1339;25449;-77
2022/09/02 07:56:22;;;;;;;5.50;2.40;;;;;;;25.04;36.02;101253.73;84170;1339;22723;-76
2022/09/02 07:58:32;;;;;;;7.90;2.30;;;;;;;25.75;34.87;101251.75;84158;1339;22930;-77
2022/09/02 08:00:43;;;;;;;5.70;1.80;;;;;;;26.37;33.03;101252.29;84180;1339;25397;-77
2022/09/02 08:02:54;;;;;;;8.00;2.40;;;;;;;26.72;31.53;101249.98;84233;1339;23966;-76
2022/09/02 08:05:04;;;;;;;7.70;2.50;;;;;;;26.88;30.61;101245.08;84192;1340;23982;-77
2022/09/02 08:07:15;;;;;;;6.10;1.90;;;;;;;27.04;30.72;101245.55;84209;1339;22586;-76
2022/09/02 08:09:25;;;;;;;5.60;2.20;;;;;;;27.33;29.12;101244.88;84202;1339;25596;-77
2022/09/02 08:11:35;;;;;;;;;;;;;;;27.54;29.50;101246.04;84236;1339;22589;-78
2022/09/02 08:13:45;;;;;;;3.50;1.10;;;;;;;27.97;29.34;101250.66;84050;1342;22716;-79
2022/09/02 08:15:54;;;;;;;6.70;2.30;;;;;;;28.60;28.20;101249.06;84210;1339;22607;-76
2022/09/02 08:18:06;;;;;;;8.40;1.90;;;;;;;29.08;26.22;101243.27;84218;1339;22614;-76
2022/09/02 08:20:16;;;;;;;2.80;0.90;;;;;;;29.31;26.62;101244.06;84249;1338;25323;-80
2022/09/02 08:22:25;;;;;;;2.80;0.90;;;;;;;29.81;25.77;101241.17;84241;1339;22617;-78
2022/09/02 08:24:36;;;;;;;1.90;0.80;;;;;;;30.35;25.86;101242.98;84228;1342;22695;-79
2022/09/02 08:26:45;;;;;;;3.60;1.50;;;;;;;30.86;24.72;101239.95;84045;1342;22627;-79
2022/09/02 08:28:54;;;;;;;3.00;0.80;;;;;;;31.36;25.02;101241.39;84222;1339;25501;-75
2022/09/02 08:31:05;;;;;;;;;;;;;;;31.89;24.21;101240.21;84219;1339;25445;-77
2022/09/02 08:33:15;;;;;;;4.70;1.90;;;;;;;32.22;23.79;101240.76;84212;1338;22616;-77
2022/09/02 08:35:24;;;;;;;5.20;2.40;;;;;;;32.36;22.64;101238.24;84183;1339;22662;-76
2022/09/02 08:37:31;;;;;;;;;;;;;;;32.42;22.80;101237.00;84219;1336;22665;-76
2022/09/02 08:39:41;;;;;;;4.90;1.90;;;;;;;32.58;23.03;101238.03;84199;1339;24897;-79
2022/09/02 08:41:54;;;;;;;2.90;1.70;;;;;;;32.85;22.13;101238.59;84180;1331;22731;-78
2022/09/02 08:44:05;;;;;;;3.30;0.90;;;;;;;32.94;20.77;101239.54;84242;1339;22593;-78
2022/09/02 08:46:16;;;;;;;1.40;0.90;;;;;;;32.91;21.11;101238.42;84204;1342;25592;-79
2022/09/02 08:48:31;;;;;;;3.60;0.60;;;;;;;33.06;20.83;101232.31;84211;1339;22611;-78
2022/09/02 08:50:42;;;;;;;7.00;1.70;;;;;;;32.99;20.48;101232.95;84218;1339;24265;-79
2022/09/02 08:52:57;;;;;;;5.80;2.10;;;;;;;32.74;19.82;101232.69;84210;1339;22597;-78
2022/09/02 08:55:07;;;;;;;5.20;1.60;;;;;;;32.43;19.52;101233.58;84201;1339;25308;-79
2022/09/02 08:57:16;;;;;;;4.70;1.50;;;;;;;32.23;20.52;101233.98;84192;1339;25408;-78
2022/09/02 08:59:26;;;;;;;3.70;1.80;;;;;;;32.12;19.82;101234.44;84196;1339;25484;-71
2022/09/02 09:01:45;;;;;;;14.40;2.60;;;;;;;31.90;20.04;101234.86;84194;1341;22608;-74
2022/09/02 09:04:16;;;;;;;2.70;1.30;;;;;;;31.85;20.46;101236.89;84241;1339;22611;-71
2022/09/02 09:06:29;;;;;;;6.60;1.80;;;;;;;32.15;20.05;101232.90;84207;1339;22641;-72
2022/09/02 09:08:44;;;;;;;1.00;0.60;;;;;;;32.09;19.80;101234.85;84222;1339;25661;-71
2022/09/02 09:10:59;;;;;;;1.40;0.50;;;;;;;32.08;19.99;101230.29;84245;1339;22903;-69
2022/09/02 09:13:23;;;;;;;3.70;0.80;;;;;;;32.06;20.15;101225.65;84204;1339;24190;-75
2022/09/02 09:15:40;;;;;;;3.90;1.00;;;;;;;32.01;20.77;101217.96;84225;1336;24264;-73
2022/09/02 09:17:52;;;;;;;4.20;1.50;;;;;;;32.28;20.55;101215.79;84229;1339;22620;-71
2022/09/02 09:20:03;;;;;;;6.00;1.30;;;;;;;32.40;20.39;101215.98;84237;1339;25486;-74
2022/09/02 09:22:14;;;;;;;2.80;1.00;;;;;;;32.50;19.66;101211.42;84232;1339;22613;-75
2022/09/02 09:24:28;;;;;;;2.90;1.00;;;;;;;32.59;19.38;101212.04;84209;1339;22598;-75
2022/09/02 09:26:39;;;;;;;1.90;0.70;;;;;;;32.52;19.52;101218.30;84199;1339;22604;-75
2022/09/02 09:28:52;;;;;;;5.70;1.50;;;;;;;32.56;19.42;101217.83;84210;1339;24130;-75
2022/09/02 09:31:02;;;;;;;3.80;0.60;;;;;;;32.53;19.05;101215.11;84213;1339;22596;-76
2022/09/02 09:33:12;;;;;;;2.00;1.00;;;;;;;32.28;19.12;101213.00;84206;1339;22586;-73
2022/09/02 09:35:21;;;;;;;0.70;0.40;;;;;;;31.92;19.10;101211.59;84202;1339;22745;-75
2022/09/02 09:37:36;;;;;;;;;;;;;;;31.32;19.78;101207.52;84212;1339;22641;-73
2022/09/02 09:39:46;;;;;;;2.20;0.50;;;;;;;30.79;21.18;101207.75;84193;1339;24230;-74
2022/09/02 09:41:56;;;;;;;7.00;1.40;;;;;;;30.57;20.67;101209.93;84214;1339;26698;-74
2022/09/02 09:44:08;;;;;;;6.90;1.60;;;;;;;30.15;20.72;101209.09;84174;1339;22603;-74
2022/09/02 09:46:31;;;;;;;;;;;;;;;29.70;20.65;101209.97;84222;1340;22607;-74
2022/09/02 09:48:40;;;;;;;3.10;1.10;;;;;;;29.15;21.35;101205.80;84230;1339;22609;-74
2022/09/02 09:51:08;;;;;;;7.40;2.20;;;;;;;28.75;22.33;101205.91;84074;1341;22629;-73
2022/09/02 09:53:19;;;;;;;;;;;;;;;27.99;22.15;101204.95;84107;1337;22586;-73
2022/09/02 09:55:28;;;;;;;12.20;2.60;;;;;;;27.29;23.48;101200.20;84034;1341;24716;-74
2022/09/02 09:57:39;;;;;;;7.40;1.30;;;;;;;26.86;23.50;101200.84;83899;1340;22244;-74
2022/09/02 09:59:54;;;;;;;9.30;2.00;;;;;;;26.42;23.92;101206.58;84070;1336;22631;-74
2022/09/02 10:02:04;;;;;;;3.20;1.00;;;;;;;26.07;23.74;101199.39;84066;1342;22602;-74
2022/09/02 10:04:28;;;;;;;0.60;0.50;;;;;;;25.76;24.27;101205.67;84062;1342;25313;-73
2022/09/02 10:06:47;;;;;;;0.80;0.50;;;;;;;25.50;24.64;101196.92;84069;1344;24279;-73
2022/09/02 10:08:58;;;;;;;2.30;0.50;;;;;;;25.24;24.95;101198.70;84060;1342;26573;-72
2022/09/02 10:11:22;;;;;;;5.10;0.60;;;;;;;25.09;25.38;101198.37;84059;1340;22600;-72
2022/09/02 10:13:33;;;;;;;6.30;1.10;;;;;;;24.73;25.56;101191.90;84098;1342;22615;-76
2022/09/02 10:15:46;;;;;;;1.60;0.70;;;;;;;24.52;26.51;101188.71;84056;1341;24112;-74
2022/09/02 10:17:58;;;;;;;3.50;0.50;;;;;;;24.41;26.50;101190.85;84088;1342;25610;-73
2022/09/02 10:20:11;;;;;;;1.90;1.10;;;;;;;24.26;26.45;101189.42;84064;1341;25781;-73